createdAt,value
2022-10-14T00:01:21.655Z,100731.34
2022-10-14T00:03:50.593Z,100731.34
2022-10-14T00:06:24.574Z,100723.41
2022-10-14T00:08:52.804Z,100725.22
2022-10-14T00:11:22.500Z,100726.06
2022-10-14T00:13:51.238Z,100730.50
2022-10-14T00:16:21.033Z,100734.97
2022-10-14T00:18:49.386Z,100736.78
2022-10-14T00:21:17.698Z,100734.97
2022-10-14T00:23:49.560Z,100734.13
2022-10-14T00:26:20.157Z,100732.47
2022-10-14T00:28:48.758Z,100728.13
2022-10-14T00:31:17.305Z,100731.59
2022-10-14T00:33:48.510Z,100729.81
2022-10-14T00:36:18.389Z,100730.66
2022-10-14T00:38:46.694Z,100728.84
2022-10-14T00:41:20.806Z,100728.13
2022-10-14T00:43:55.740Z,100727.28
2022-10-14T00:46:23.928Z,100735.22
2022-10-14T00:48:57.908Z,100731.59
2022-10-14T00:51:28.727Z,100728.00
2022-10-14T00:53:57.011Z,100719.34
2022-10-14T00:56:30.362Z,100724.50
2022-10-14T00:58:59.109Z,100728.13
2022-10-14T01:01:26.964Z,100722.16
2022-10-14T01:03:55.002Z,100724.63
2022-10-14T01:06:41.690Z,100725.38
2022-10-14T01:09:20.113Z,100729.69
2022-10-14T01:12:27.486Z,100727.16
2022-10-14T01:14:59.725Z,100726.06
2022-10-14T01:17:37.394Z,100721.59
2022-10-14T01:20:30.058Z,100728.13
2022-10-14T01:23:14.139Z,100729.13
2022-10-14T01:25:56.215Z,100722.16
2022-10-14T01:28:34.207Z,100724.63
2022-10-14T01:31:05.992Z,100722.97
2022-10-14T01:33:38.035Z,100723.25
2022-10-14T01:36:16.272Z,100716.97
2022-10-14T01:38:47.480Z,100709.84
2022-10-14T01:41:20.764Z,100705.41
2022-10-14T01:43:51.231Z,100710.56
2022-10-14T01:46:25.021Z,100705.41
2022-10-14T01:49:00.224Z,100696.47
2022-10-14T01:51:35.675Z,100694.69
2022-10-14T01:54:09.550Z,100703.19
2022-10-14T01:56:40.740Z,100693.28
2022-10-14T01:59:15.122Z,100695.81
2022-10-14T02:01:44.508Z,100693.00
2022-10-14T02:04:17.962Z,100687.59
2022-10-14T02:06:51.859Z,100686.22
2022-10-14T02:09:25.683Z,100676.19
2022-10-14T02:12:06.648Z,100683.28
2022-10-14T02:14:40.762Z,100674.88
2022-10-14T02:17:15.110Z,100673.09
2022-10-14T02:19:49.419Z,100664.28
2022-10-14T02:22:29.093Z,100661.94
2022-10-14T02:25:01.007Z,100656.50
2022-10-14T02:27:32.702Z,100663.19
2022-10-14T02:30:01.615Z,100653.28
2022-10-14T02:32:32.651Z,100651.50
2022-10-14T02:35:02.047Z,100651.50
2022-10-14T02:37:30.704Z,100651.34
2022-10-14T02:40:06.093Z,100650.38
2022-10-14T02:42:34.333Z,100644.38
2022-10-14T02:45:06.926Z,100643.41
2022-10-14T02:47:36.226Z,100637.13
2022-10-14T02:50:04.312Z,100642.31
2022-10-14T02:52:32.240Z,100638.25
2022-10-14T02:55:00.061Z,100637.38
2022-10-14T02:57:28.062Z,100629.88
2022-10-14T02:59:58.159Z,100623.19
2022-10-14T03:02:28.482Z,100618.44
2022-10-14T03:04:59.536Z,100620.25
2022-10-14T03:07:27.488Z,100617.34
2022-10-14T03:09:58.247Z,100616.19
2022-10-14T03:12:26.622Z,100616.38
2022-10-14T03:14:56.887Z,100611.19
2022-10-14T03:17:26.650Z,100620.25
2022-10-14T03:20:00.911Z,100619.81
2022-10-14T03:22:29.038Z,100616.38
2022-10-14T03:24:57.880Z,100615.50
2022-10-14T03:27:40.125Z,100608.13
2022-10-14T03:30:12.845Z,100613.16
2022-10-14T03:32:52.660Z,100605.06
2022-10-14T03:35:31.678Z,100608.69
2022-10-14T03:38:02.974Z,100611.22
2022-10-14T03:40:34.346Z,100610.34
2022-10-14T03:43:08.977Z,100614.84
2022-10-14T03:45:48.077Z,100604.78
2022-10-14T03:48:19.147Z,100606.88
2022-10-14T03:50:49.269Z,100598.22
2022-10-14T03:53:20.118Z,100599.75
2022-10-14T03:55:49.195Z,100591.69
2022-10-14T03:58:17.122Z,100585.28
2022-10-14T04:00:50.817Z,100581.50
2022-10-14T04:03:41.831Z,100587.94
2022-10-14T04:06:11.112Z,100581.66
2022-10-14T04:08:39.078Z,100592.38
2022-10-14T04:11:20.167Z,100588.19
2022-10-14T04:13:50.140Z,100586.50
2022-10-14T04:16:18.115Z,100588.34
2022-10-14T04:19:08.522Z,100584.97
2022-10-14T04:21:37.838Z,100592.94
2022-10-14T04:24:09.847Z,100588.47
2022-10-14T04:26:51.080Z,100589.88
2022-10-14T04:29:27.001Z,100594.03
2022-10-14T04:32:02.593Z,100590.84
2022-10-14T04:34:32.790Z,100590.84
2022-10-14T04:37:02.145Z,100577.75
2022-10-14T04:39:50.394Z,100582.06
2022-10-14T04:42:18.712Z,100582.88
2022-10-14T04:44:50.588Z,100584.97
2022-10-14T04:47:25.150Z,100579.25
2022-10-14T04:49:58.613Z,100580.41
2022-10-14T04:52:30.595Z,100579.25
2022-10-14T04:55:05.081Z,100571.47
2022-10-14T04:57:43.087Z,100569.25
2022-10-14T05:00:13.421Z,100570.19
2022-10-14T05:02:54.636Z,100563.22
2022-10-14T05:05:29.458Z,100565.88
2022-10-14T05:08:00.847Z,100564.91
2022-10-14T05:10:37.832Z,100557.81
2022-10-14T05:13:09.509Z,100558.66
2022-10-14T05:15:46.240Z,100558.78
2022-10-14T05:18:14.023Z,100557.69
2022-10-14T05:21:03.079Z,100562.56
2022-10-14T05:23:50.227Z,100559.59
2022-10-14T05:26:18.663Z,100557.13
2022-10-14T05:28:46.871Z,100553.63
2022-10-14T05:31:14.887Z,100557.25
2022-10-14T05:33:53.116Z,100553.50
2022-10-14T05:36:21.705Z,100552.94
2022-10-14T05:38:55.669Z,100551.25
2022-10-14T05:41:24.278Z,100551.41
2022-10-14T05:43:52.462Z,100550.41
2022-10-14T05:46:21.285Z,100551.53
2022-10-14T05:48:54.837Z,100541.63
2022-10-14T05:51:25.494Z,100547.47
2022-10-14T05:54:02.243Z,100548.31
2022-10-14T05:56:30.908Z,100550.41
2022-10-14T05:58:58.882Z,100544.97
2022-10-14T06:01:27.996Z,100543.03
2022-10-14T06:03:55.867Z,100544.56
2022-10-14T06:06:28.716Z,100543.16
2022-10-14T06:08:57.510Z,100545.81
2022-10-14T06:11:26.686Z,100541.91
2022-10-14T06:13:54.596Z,100541.06
2022-10-14T06:16:22.550Z,100544.13
2022-10-14T06:18:54.250Z,100534.09
2022-10-14T06:21:23.546Z,100540.06
2022-10-14T06:23:51.620Z,100541.72
2022-10-14T06:26:19.789Z,100526.97
2022-10-14T06:28:51.502Z,100532.66
2022-10-14T06:31:19.524Z,100535.88
2022-10-14T06:33:49.560Z,100542.72
2022-10-14T06:36:17.624Z,100537.00
2022-10-14T06:38:45.621Z,100537.00
2022-10-14T06:41:13.499Z,100532.00
2022-10-14T06:43:41.620Z,100539.22
2022-10-14T06:46:10.824Z,100533.25
2022-10-14T06:48:38.943Z,100541.31
2022-10-14T06:51:07.058Z,100541.88
2022-10-14T06:53:35.126Z,100537.13
2022-10-14T06:56:07.709Z,100536.84
2022-10-14T06:58:35.618Z,100538.22
2022-10-14T07:01:04.163Z,100536.41
2022-10-14T07:03:36.343Z,100547.84
2022-10-14T07:06:04.832Z,100544.25
2022-10-14T07:08:32.775Z,100544.63
2022-10-14T07:11:00.953Z,100539.06
2022-10-14T07:13:30.347Z,100533.19
2022-10-14T07:15:58.174Z,100541.94
2022-10-14T07:18:26.383Z,100544.72
2022-10-14T07:20:56.026Z,100544.03
2022-10-14T07:23:24.275Z,100546.25
2022-10-14T07:25:57.179Z,100536.38
2022-10-14T07:28:25.701Z,100549.34
2022-10-14T07:31:01.897Z,100539.16
2022-10-14T07:33:30.050Z,100538.63
2022-10-14T07:36:02.226Z,100536.66
2022-10-14T07:38:33.354Z,100536.13
2022-10-14T07:41:04.041Z,100539.72
2022-10-14T07:43:34.329Z,100535.66
2022-10-14T07:46:05.150Z,100534.25
2022-10-14T07:48:45.365Z,100531.31
2022-10-14T07:51:24.194Z,100536.13
2022-10-14T07:53:53.243Z,100538.22
2022-10-14T07:56:22.418Z,100537.22
2022-10-14T07:58:50.804Z,100540.16
2022-10-14T08:01:21.677Z,100528.41
2022-10-14T08:03:49.831Z,100530.06
2022-10-14T08:06:17.998Z,100531.25
2022-10-14T08:08:47.408Z,100534.13
2022-10-14T08:11:17.751Z,100524.00
2022-10-14T08:13:46.709Z,100533.44
2022-10-14T08:16:18.158Z,100533.00
2022-10-14T08:18:47.674Z,100535.09
2022-10-14T08:21:16.011Z,100530.34
2022-10-14T08:23:44.420Z,100536.00
2022-10-14T08:26:21.051Z,100530.44
2022-10-14T08:28:49.698Z,100536.13
2022-10-14T08:31:17.951Z,100532.34
2022-10-14T08:33:45.913Z,100529.88
2022-10-14T08:36:14.268Z,100523.63
2022-10-14T08:38:42.763Z,100527.66
2022-10-14T08:41:27.236Z,100528.56
2022-10-14T08:44:12.265Z,100524.31
2022-10-14T08:46:45.751Z,100524.63
2022-10-14T08:49:23.250Z,100520.53
2022-10-14T08:51:56.853Z,100518.25
2022-10-14T08:54:33.145Z,100510.81
2022-10-14T08:57:06.599Z,100499.06
2022-10-14T08:59:40.245Z,100501.34
2022-10-14T09:02:21.366Z,100491.63
2022-10-14T09:04:49.761Z,100495.41
2022-10-14T09:07:20.265Z,100498.81
2022-10-14T09:09:51.428Z,100498.13
2022-10-14T09:12:26.743Z,100502.25
2022-10-14T09:15:02.438Z,100500.78
2022-10-14T09:17:37.876Z,100493.34
2022-10-14T09:20:17.878Z,100493.59
2022-10-14T09:22:46.493Z,100488.56
2022-10-14T09:25:16.683Z,100481.31
2022-10-14T09:30:19.809Z,100479.38
2022-10-14T09:32:51.004Z,100490.56
2022-10-14T09:35:25.126Z,100481.53
2022-10-14T09:37:54.008Z,100482.63
2022-10-14T09:40:29.785Z,100478.50
2022-10-14T09:43:06.514Z,100471.38
2022-10-14T09:45:50.041Z,100467.16
2022-10-14T09:48:20.774Z,100457.69
2022-10-14T09:50:54.314Z,100457.34
2022-10-14T09:53:29.338Z,100450.91
2022-10-14T09:55:59.481Z,100445.44
2022-10-14T09:58:36.633Z,100446.38
2022-10-14T10:01:12.706Z,100442.41
2022-10-14T10:03:41.142Z,100443.09
2022-10-14T10:06:11.672Z,100443.25
2022-10-14T10:08:42.099Z,100429.84
2022-10-14T10:11:13.891Z,100429.00
2022-10-14T10:13:45.432Z,100424.59
2022-10-14T10:16:22.970Z,100422.78
2022-10-14T10:18:52.497Z,100418.16
2022-10-14T10:21:24.713Z,100417.00
2022-10-14T10:23:58.303Z,100420.50
2022-10-14T10:26:30.550Z,100411.22
2022-10-14T10:29:02.706Z,100414.22
2022-10-14T10:31:53.359Z,100407.59
2022-10-14T10:34:53.597Z,100404.44
2022-10-14T10:37:28.282Z,100397.97
2022-10-14T10:40:20.027Z,100398.31
2022-10-14T10:42:59.408Z,100389.69
2022-10-14T10:45:51.138Z,100381.53
2022-10-14T10:48:26.056Z,100377.56
2022-10-14T10:51:00.611Z,100371.91
2022-10-14T10:53:40.122Z,100374.06
2022-10-14T10:56:18.604Z,100376.69
2022-10-14T10:59:07.200Z,100374.91
2022-10-14T11:01:44.588Z,100377.06
2022-10-14T11:04:28.475Z,100382.22
2022-10-14T11:07:27.173Z,100373.06
2022-10-14T11:10:25.683Z,100372.72
2022-10-14T11:13:01.188Z,100368.41
2022-10-14T11:15:43.282Z,100367.72
2022-10-14T11:18:20.668Z,100361.19
2022-10-14T11:21:05.162Z,100365.22
2022-10-14T11:23:47.631Z,100350.22
2022-10-14T11:26:27.471Z,100347.38
2022-10-14T11:29:09.831Z,100350.84
2022-10-14T11:31:45.859Z,100343.66
2022-10-14T11:34:28.832Z,100335.19
2022-10-14T11:37:07.998Z,100331.00
2022-10-14T11:39:43.321Z,100318.22
2022-10-14T11:42:31.470Z,100327.63
2022-10-14T11:45:14.201Z,100321.47
2022-10-14T11:47:47.887Z,100326.13
2022-10-14T11:50:21.373Z,100310.97
2022-10-14T11:52:55.579Z,100312.63
2022-10-14T11:55:24.823Z,100310.97
2022-10-14T11:57:58.816Z,100308.16
2022-10-14T12:00:30.544Z,100308.13
2022-10-14T12:03:25.138Z,100318.63
2022-10-14T12:06:02.103Z,100309.16
2022-10-14T12:08:35.959Z,100316.78
2022-10-14T12:11:07.890Z,100310.81
2022-10-14T12:13:41.589Z,100306.31
2022-10-14T12:16:14.479Z,100300.97
2022-10-14T12:18:43.897Z,100297.66
2022-10-14T12:21:20.411Z,100291.47
2022-10-14T12:23:51.689Z,100296.81
2022-10-14T12:26:41.206Z,100295.81
2022-10-14T12:29:14.273Z,100285.50
2022-10-14T12:31:42.332Z,100286.66
2022-10-14T12:34:26.056Z,100282.50
2022-10-14T12:36:55.346Z,100280.50
2022-10-14T12:39:31.967Z,100278.84
2022-10-14T12:42:03.205Z,100274.88
2022-10-14T12:44:36.419Z,100275.88
2022-10-14T12:47:05.709Z,100277.53
2022-10-14T12:49:37.846Z,100286.00
2022-10-14T12:52:09.805Z,100278.69
2022-10-14T12:54:46.085Z,100279.34
2022-10-14T12:57:27.061Z,100282.84
2022-10-14T12:59:57.209Z,100274.00
2022-10-14T13:02:33.352Z,100283.16
2022-10-14T13:05:04.788Z,100283.94
2022-10-14T13:07:41.743Z,100283.41
2022-10-14T13:10:47.275Z,100280.03
2022-10-14T13:13:52.263Z,100274.06
2022-10-14T13:17:06.140Z,100274.53
2022-10-14T13:19:44.589Z,100279.53
2022-10-14T13:22:41.995Z,100272.84
2022-10-14T13:25:28.852Z,100262.72
2022-10-14T13:28:19.338Z,100278.28
2022-10-14T13:30:57.074Z,100264.34
2022-10-14T13:33:32.549Z,100259.88
2022-10-14T13:36:12.586Z,100253.53
2022-10-14T13:38:47.860Z,100246.06
2022-10-14T13:41:28.328Z,100243.72
2022-10-14T13:44:00.735Z,100249.38
2022-10-14T13:46:35.109Z,100256.19
2022-10-14T13:49:09.499Z,100253.84
2022-10-14T13:51:45.856Z,100252.69
2022-10-14T13:54:20.890Z,100250.41
2022-10-14T13:57:38.210Z,100243.09
2022-10-14T14:02:41.935Z,100232.78
2022-10-14T14:05:17.045Z,100220.50
2022-10-14T14:10:51.563Z,100215.03
2022-10-14T14:13:26.459Z,100217.69
2022-10-14T14:15:56.109Z,100209.19
2022-10-14T14:18:38.203Z,100212.38
2022-10-14T14:21:18.248Z,100214.53
2022-10-14T14:23:53.224Z,100202.06
2022-10-14T14:26:35.244Z,100210.03
2022-10-14T14:29:05.994Z,100208.38
2022-10-14T14:32:05.090Z,100197.25
2022-10-14T14:34:25.172Z,100189.56
2022-10-14T14:37:01.388Z,100195.59
2022-10-14T14:39:34.805Z,100200.22
2022-10-14T14:42:04.014Z,100195.06
2022-10-14T14:44:34.918Z,100185.44
2022-10-14T14:47:05.264Z,100172.97
2022-10-14T14:49:36.304Z,100165.34
2022-10-14T14:52:07.314Z,100166.03
2022-10-14T14:54:35.245Z,100162.06
2022-10-14T14:57:07.419Z,100156.91
2022-10-14T14:59:38.940Z,100152.59
2022-10-14T15:02:16.193Z,100148.28
2022-10-14T15:04:48.576Z,100149.31
2022-10-14T15:07:21.496Z,100150.78
2022-10-14T15:09:52.841Z,100155.09
2022-10-14T15:12:30.614Z,100155.38
2022-10-14T15:14:59.973Z,100163.50
2022-10-14T15:17:33.408Z,100158.69
2022-10-14T15:20:22.285Z,100155.69
2022-10-14T15:22:50.542Z,100142.06
2022-10-14T15:25:30.036Z,100139.41
2022-10-14T15:28:00.121Z,100138.06
2022-10-14T15:30:34.516Z,100145.06
2022-10-14T15:33:15.634Z,100138.56
2022-10-14T15:36:03.518Z,100144.72
2022-10-14T15:40:59.569Z,100153.34
2022-10-14T15:43:29.007Z,100142.06
2022-10-14T15:46:13.188Z,100135.38
2022-10-14T15:48:46.922Z,100136.75
2022-10-14T15:51:19.546Z,100139.69
2022-10-14T15:53:47.651Z,100133.88
2022-10-14T15:56:16.030Z,100132.88
2022-10-14T15:58:45.348Z,100134.22
2022-10-14T16:01:18.991Z,100130.91
2022-10-14T16:03:47.944Z,100127.41
2022-10-14T16:06:16.933Z,100126.72
2022-10-14T16:08:46.440Z,100123.09
2022-10-14T16:11:21.702Z,100123.38
2022-10-14T16:13:50.952Z,100124.38
2022-10-14T16:16:25.210Z,100119.56
2022-10-14T16:18:53.352Z,100123.75
2022-10-14T16:21:21.113Z,100125.41
2022-10-14T16:23:48.989Z,100133.03
2022-10-14T16:26:16.734Z,100130.38
2022-10-14T16:28:44.728Z,100124.88
2022-10-14T16:31:15.936Z,100119.91
2022-10-14T16:33:45.802Z,100111.63
2022-10-14T16:36:15.903Z,100107.63
2022-10-14T16:38:43.849Z,100103.78
2022-10-14T16:41:12.396Z,100108.94
2022-10-14T16:43:40.499Z,100115.09
2022-10-14T16:46:11.736Z,100110.44
2022-10-14T16:48:42.916Z,100109.28
2022-10-14T16:51:10.996Z,100099.97
2022-10-14T16:53:41.818Z,100103.47
2022-10-14T16:56:27.033Z,100104.13
2022-10-14T16:58:55.122Z,100105.28
2022-10-14T17:01:23.603Z,100103.63
2022-10-14T17:03:53.005Z,100107.13
2022-10-14T17:06:23.987Z,100111.44
2022-10-14T17:08:52.445Z,100110.59
2022-10-14T17:11:21.131Z,100113.94
2022-10-14T17:13:52.388Z,100113.09
2022-10-14T17:16:23.413Z,100119.56
2022-10-14T17:18:53.002Z,100114.75
2022-10-14T17:21:21.106Z,100110.94
2022-10-14T17:23:52.029Z,100127.88
2022-10-14T17:26:20.871Z,100128.69
2022-10-14T17:28:49.785Z,100117.09
2022-10-14T17:31:20.124Z,100113.94
2022-10-14T17:33:51.006Z,100105.47
2022-10-14T17:36:22.904Z,100108.63
2022-10-14T17:38:52.564Z,100102.47
2022-10-14T17:41:20.763Z,100105.97
2022-10-14T17:43:50.340Z,100113.25
2022-10-14T17:46:21.078Z,100117.91
2022-10-14T17:48:51.866Z,100114.75
2022-10-14T17:51:25.445Z,100120.03
2022-10-14T17:53:55.076Z,100112.41
2022-10-14T17:56:23.260Z,100114.38
2022-10-14T17:58:55.385Z,100109.91
2022-10-14T18:01:37.090Z,100124.19
2022-10-14T18:04:06.818Z,100115.22
2022-10-14T18:06:37.391Z,100116.88
2022-10-14T18:09:08.000Z,100118.38
2022-10-14T18:12:07.122Z,100117.22
2022-10-14T18:14:28.478Z,100109.25
2022-10-14T18:16:56.361Z,100098.44
2022-10-14T18:19:24.237Z,100098.28
2022-10-14T18:21:53.462Z,100098.78
2022-10-14T18:24:21.272Z,100104.75
2022-10-14T18:26:50.573Z,100096.94
2022-10-14T18:29:18.633Z,100097.44
2022-10-14T18:31:46.691Z,100106.25
2022-10-14T18:34:14.489Z,100105.38
2022-10-14T18:36:42.466Z,100099.94
2022-10-14T18:39:12.849Z,100092.63
2022-10-14T18:41:59.568Z,100080.50
2022-10-14T18:44:27.470Z,100076.69
2022-10-14T18:46:56.875Z,100076.03
2022-10-14T18:49:24.967Z,100074.88
2022-10-14T18:51:54.960Z,100070.38
2022-10-14T18:54:24.844Z,100068.84
2022-10-14T18:56:53.349Z,100065.06
2022-10-14T18:59:23.273Z,100058.09
2022-10-14T19:01:55.200Z,100050.63
2022-10-14T19:04:26.688Z,100055.13
2022-10-14T19:06:54.731Z,100044.97
2022-10-14T19:09:29.379Z,100050.28
2022-10-14T19:11:58.978Z,100057.09
2022-10-14T19:14:28.425Z,100069.22
2022-10-14T19:16:56.499Z,100055.28
2022-10-14T19:19:24.306Z,100039.66
2022-10-14T19:21:54.194Z,100038.31
2022-10-14T19:24:22.396Z,100043.28
2022-10-14T19:26:51.599Z,100039.97
2022-10-14T19:29:19.539Z,100024.38
2022-10-14T19:31:47.440Z,100031.19
2022-10-14T19:34:16.987Z,100034.50
2022-10-14T19:36:47.238Z,100027.34
2022-10-14T19:39:18.785Z,100023.03
2022-10-14T19:41:47.333Z,100021.06
2022-10-14T19:44:17.250Z,100027.22
2022-10-14T19:46:45.853Z,100025.41
2022-10-14T19:49:15.550Z,100025.41
2022-10-14T19:51:43.870Z,100033.88
2022-10-14T19:54:13.599Z,100025.22
2022-10-14T19:56:41.761Z,100029.41
2022-10-14T19:59:13.577Z,100029.41
2022-10-14T20:01:42.871Z,100023.94
2022-10-14T20:04:10.934Z,100028.09
2022-10-14T20:06:39.955Z,100031.41
2022-10-14T20:09:08.778Z,100024.44
2022-10-14T20:11:36.778Z,100014.13
2022-10-14T20:14:04.704Z,100013.16
2022-10-14T20:16:32.460Z,100017.47
2022-10-14T20:19:01.918Z,100011.00
2022-10-14T20:21:30.943Z,100012.81
2022-10-14T20:23:59.652Z,100021.63
2022-10-14T20:26:27.691Z,100016.13
2022-10-14T20:28:55.883Z,100013.31
2022-10-14T20:31:25.409Z,100015.63
2022-10-14T20:33:53.421Z,100021.44
2022-10-14T20:36:23.574Z,100021.44
2022-10-14T20:38:53.451Z,100025.44
2022-10-14T20:41:25.415Z,100015.47
2022-10-14T20:43:55.048Z,100008.16
2022-10-14T20:46:24.679Z,100006.84
2022-10-14T20:48:55.574Z,100003.34
2022-10-14T20:51:25.393Z,100006.16
2022-10-14T20:54:00.455Z,99993.06
2022-10-14T20:56:32.266Z,99990.06
2022-10-14T20:59:01.800Z,99983.41
2022-10-14T21:01:30.706Z,99994.03
2022-10-14T21:04:01.972Z,99985.22
2022-10-14T21:06:32.506Z,99981.25
2022-10-14T21:09:00.868Z,99972.31
2022-10-14T21:11:29.389Z,99970.97
2022-10-14T21:13:59.487Z,99960.03
2022-10-14T21:16:29.262Z,99970.78
2022-10-14T21:18:59.348Z,99968.13
2022-10-14T21:21:30.253Z,99976.25
2022-10-14T21:23:59.902Z,99964.97
2022-10-14T21:26:27.988Z,99958.66
2022-10-14T21:28:55.783Z,99959.50
2022-10-14T21:31:24.260Z,99963.97
2022-10-14T21:33:59.878Z,99959.81
2022-10-14T21:36:31.036Z,99954.84
2022-10-14T21:39:01.098Z,99950.34
2022-10-14T21:41:29.195Z,99953.84
2022-10-14T21:44:01.850Z,99952.00
2022-10-14T21:46:29.786Z,99939.94
2022-10-14T21:48:58.790Z,99940.88
2022-10-14T21:51:31.050Z,99938.44
2022-10-14T21:54:00.240Z,99932.78
2022-10-14T21:56:28.686Z,99926.47
2022-10-14T21:58:56.615Z,99926.31
2022-10-14T22:01:27.142Z,99928.97
2022-10-14T22:03:56.302Z,99925.66
2022-10-14T22:06:27.119Z,99927.16
2022-10-14T22:08:56.163Z,99913.88
2022-10-14T22:11:27.742Z,99911.38
2022-10-14T22:13:57.485Z,99910.88
2022-10-14T22:16:26.428Z,99907.38
2022-10-14T22:18:54.533Z,99904.41
2022-10-14T22:21:24.990Z,99903.44
2022-10-14T22:23:55.175Z,99887.00
2022-10-14T22:26:26.541Z,99895.28
2022-10-14T22:28:58.906Z,99890.16
2022-10-14T22:31:27.737Z,99886.00
2022-10-14T22:33:55.501Z,99887.31
2022-10-14T22:36:30.233Z,99888.00
2022-10-14T22:38:59.410Z,99885.00
2022-10-14T22:41:34.882Z,99888.50
2022-10-14T22:44:05.097Z,99885.84
2022-10-14T22:46:34.769Z,99885.34
2022-10-14T22:49:02.653Z,99889.31
2022-10-14T22:51:32.070Z,99881.69
2022-10-14T22:54:00.432Z,99876.38
2022-10-14T22:56:36.917Z,99880.19
2022-10-14T22:59:07.107Z,99874.03
2022-10-14T23:01:35.595Z,99881.84
2022-10-14T23:04:04.200Z,99877.84
2022-10-14T23:06:33.038Z,99866.72
2022-10-14T23:09:01.342Z,99867.56
2022-10-14T23:11:32.237Z,99860.09
2022-10-14T23:14:02.857Z,99863.25
2022-10-14T23:16:34.233Z,99852.50
2022-10-14T23:19:04.236Z,99858.09
2022-10-14T23:21:36.281Z,99860.91
2022-10-14T23:24:06.912Z,99855.59
2022-10-14T23:26:37.001Z,99856.28
2022-10-14T23:29:11.223Z,99848.78
2022-10-14T23:31:40.490Z,99854.44
2022-10-14T23:34:12.780Z,99848.78
2022-10-14T23:36:40.932Z,99845.63
2022-10-14T23:39:08.944Z,99854.09
2022-10-14T23:41:38.320Z,99856.09
2022-10-14T23:44:06.105Z,99855.09
2022-10-14T23:46:33.956Z,99853.94
2022-10-14T23:49:21.519Z,99852.44
2022-10-14T23:51:52.338Z,99852.44
2022-10-14T23:54:20.170Z,99849.50
2022-10-14T23:56:49.397Z,99840.19
2022-10-14T23:59:17.744Z,99838.22
